< < Back
Terminal Aerodrome Forecast


Current Version              Previous Versions:   1  2  3  4  5  6  7  8  9  

Terminal Aerodrome Forecast

726
FTUS42 KGSP 171100
TAFHKY
TAF
KHKY 171127Z 1712/1812 04004KT P6SM SCT025 BKN035
      TEMPO 1712/1713 BKN025
     FM171300 03005KT P6SM BKN020
     FM171800 02004KT P6SM BKN050
     FM180600 00000KT 5SM BR BKN022=



Latest METAR

420
SAUS70 KWBC 171900 RRA
MTRHKY
METAR KHKY 171853Z 09003KT 10SM OVC021 21/16 A2998 RMK AO2 SLP134
T02110161


USA.gov is the U.S. government's official web portal to all federal, state and local government web resources and services.